sensor_id;sensor_type;location;lat;lon;timestamp;P1;durP1;ratioP1;P2;durP2;ratioP2
19521;SDS011;9905;52.126;5.596;2023-02-28T00:00:37;5.10;;;4.80;;
19521;SDS011;9905;52.126;5.596;2023-02-28T00:03:04;5.93;;;5.53;;
19521;SDS011;9905;52.126;5.596;2023-02-28T00:05:31;4.70;;;4.40;;
19521;SDS011;9905;52.126;5.596;2023-02-28T00:07:59;5.10;;;4.67;;
19521;SDS011;9905;52.126;5.596;2023-02-28T00:10:26;5.07;;;4.88;;
19521;SDS011;9905;52.126;5.596;2023-02-28T00:12:55;5.17;;;4.93;;
19521;SDS011;9905;52.126;5.596;2023-02-28T00:15:26;5.03;;;4.73;;
19521;SDS011;9905;52.126;5.596;2023-02-28T00:17:53;4.77;;;4.57;;
19521;SDS011;9905;52.126;5.596;2023-02-28T00:20:20;5.67;;;5.20;;
19521;SDS011;9905;52.126;5.596;2023-02-28T00:22:47;4.63;;;4.43;;
19521;SDS011;9905;52.126;5.596;2023-02-28T00:25:16;5.40;;;5.10;;
19521;SDS011;9905;52.126;5.596;2023-02-28T00:27:44;5.03;;;4.70;;
19521;SDS011;9905;52.126;5.596;2023-02-28T00:30:13;5.10;;;4.70;;
19521;SDS011;9905;52.126;5.596;2023-02-28T00:32:42;4.72;;;4.53;;
19521;SDS011;9905;52.126;5.596;2023-02-28T00:35:09;5.07;;;4.88;;
19521;SDS011;9905;52.126;5.596;2023-02-28T00:37:37;5.13;;;4.83;;
19521;SDS011;9905;52.126;5.596;2023-02-28T00:40:05;4.73;;;4.53;;
19521;SDS011;9905;52.126;5.596;2023-02-28T00:42:33;4.77;;;4.57;;
19521;SDS011;9905;52.126;5.596;2023-02-28T00:44:59;5.27;;;4.97;;
19521;SDS011;9905;52.126;5.596;2023-02-28T00:47:28;5.20;;;4.90;;
19521;SDS011;9905;52.126;5.596;2023-02-28T00:49:56;5.10;;;4.70;;
19521;SDS011;9905;52.126;5.596;2023-02-28T00:52:23;5.00;;;4.70;;
19521;SDS011;9905;52.126;5.596;2023-02-28T00:54:50;4.90;;;4.60;;
19521;SDS011;9905;52.126;5.596;2023-02-28T00:57:16;4.95;;;4.65;;
19521;SDS011;9905;52.126;5.596;2023-02-28T00:59:43;5.07;;;4.67;;
19521;SDS011;9905;52.126;5.596;2023-02-28T01:02:10;5.17;;;4.80;;
19521;SDS011;9905;52.126;5.596;2023-02-28T01:04:37;5.15;;;4.55;;
19521;SDS011;9905;52.126;5.596;2023-02-28T01:07:05;4.70;;;4.50;;
19521;SDS011;9905;52.126;5.596;2023-02-28T01:09:31;4.63;;;4.43;;
19521;SDS011;9905;52.126;5.596;2023-02-28T01:11:58;4.60;;;4.32;;
19521;SDS011;9905;52.126;5.596;2023-02-28T01:14:25;6.18;;;4.45;;
19521;SDS011;9905;52.126;5.596;2023-02-28T01:16:52;4.47;;;4.27;;
19521;SDS011;9905;52.126;5.596;2023-02-28T01:19:19;4.78;;;4.47;;
19521;SDS011;9905;52.126;5.596;2023-02-28T01:21:45;4.90;;;4.63;;
19521;SDS011;9905;52.126;5.596;2023-02-28T01:24:13;4.65;;;4.35;;
19521;SDS011;9905;52.126;5.596;2023-02-28T01:26:40;5.07;;;4.88;;
19521;SDS011;9905;52.126;5.596;2023-02-28T01:29:07;4.88;;;4.57;;
19521;SDS011;9905;52.126;5.596;2023-02-28T01:31:34;4.63;;;4.43;;
19521;SDS011;9905;52.126;5.596;2023-02-28T01:34:00;4.93;;;4.50;;
19521;SDS011;9905;52.126;5.596;2023-02-28T01:36:28;4.30;;;4.10;;
19521;SDS011;9905;52.126;5.596;2023-02-28T01:38:55;4.32;;;4.13;;
19521;SDS011;9905;52.126;5.596;2023-02-28T01:41:24;5.15;;;4.85;;
19521;SDS011;9905;52.126;5.596;2023-02-28T01:43:57;4.73;;;4.53;;
19521;SDS011;9905;52.126;5.596;2023-02-28T01:46:28;5.22;;;4.88;;
19521;SDS011;9905;52.126;5.596;2023-02-28T01:48:58;4.55;;;4.30;;
19521;SDS011;9905;52.126;5.596;2023-02-28T01:51:34;4.93;;;4.72;;
19521;SDS011;9905;52.126;5.596;2023-02-28T01:54:12;4.93;;;4.63;;
19521;SDS011;9905;52.126;5.596;2023-02-28T01:56:45;4.45;;;4.25;;
19521;SDS011;9905;52.126;5.596;2023-02-28T01:59:17;4.97;;;4.60;;
19521;SDS011;9905;52.126;5.596;2023-02-28T02:01:48;4.55;;;4.35;;
19521;SDS011;9905;52.126;5.596;2023-02-28T02:04:15;4.60;;;4.30;;
19521;SDS011;9905;52.126;5.596;2023-02-28T02:06:43;5.10;;;4.80;;
19521;SDS011;9905;52.126;5.596;2023-02-28T02:09:11;4.78;;;4.53;;
19521;SDS011;9905;52.126;5.596;2023-02-28T02:11:39;5.00;;;4.80;;
19521;SDS011;9905;52.126;5.596;2023-02-28T02:14:24;5.20;;;4.70;;
19521;SDS011;9905;52.126;5.596;2023-02-28T02:17:10;4.63;;;4.43;;
19521;SDS011;9905;52.126;5.596;2023-02-28T02:26:01;4.78;;;4.57;;
19521;SDS011;9905;52.126;5.596;2023-02-28T02:28:59;4.60;;;4.40;;
19521;SDS011;9905;52.126;5.596;2023-02-28T02:34:42;5.25;;;5.03;;
19521;SDS011;9905;52.126;5.596;2023-02-28T02:37:24;4.97;;;4.68;;
19521;SDS011;9905;52.126;5.596;2023-02-28T02:39:58;4.53;;;4.32;;
19521;SDS011;9905;52.126;5.596;2023-02-28T02:42:31;5.10;;;4.90;;
19521;SDS011;9905;52.126;5.596;2023-02-28T02:45:03;5.05;;;4.85;;
19521;SDS011;9905;52.126;5.596;2023-02-28T02:47:35;4.75;;;4.55;;
19521;SDS011;9905;52.126;5.596;2023-02-28T02:50:05;4.97;;;4.70;;
19521;SDS011;9905;52.126;5.596;2023-02-28T02:52:36;4.75;;;4.40;;
19521;SDS011;9905;52.126;5.596;2023-02-28T02:55:07;4.40;;;4.20;;
19521;SDS011;9905;52.126;5.596;2023-02-28T02:57:38;4.75;;;4.35;;
19521;SDS011;9905;52.126;5.596;2023-02-28T03:00:11;4.57;;;4.38;;
19521;SDS011;9905;52.126;5.596;2023-02-28T03:02:39;4.80;;;4.50;;
19521;SDS011;9905;52.126;5.596;2023-02-28T03:05:12;4.72;;;4.40;;
19521;SDS011;9905;52.126;5.596;2023-02-28T03:07:44;4.60;;;4.40;;
19521;SDS011;9905;52.126;5.596;2023-02-28T03:10:31;5.10;;;4.80;;
19521;SDS011;9905;52.126;5.596;2023-02-28T03:13:19;4.88;;;4.53;;
19521;SDS011;9905;52.126;5.596;2023-02-28T03:16:23;5.20;;;5.00;;
19521;SDS011;9905;52.126;5.596;2023-02-28T03:19:01;4.88;;;4.68;;
19521;SDS011;9905;52.126;5.596;2023-02-28T03:21:45;4.47;;;4.30;;
19521;SDS011;9905;52.126;5.596;2023-02-28T03:24:19;5.20;;;4.90;;
19521;SDS011;9905;52.126;5.596;2023-02-28T03:26:54;4.80;;;4.60;;
19521;SDS011;9905;52.126;5.596;2023-02-28T03:29:27;5.50;;;4.97;;
19521;SDS011;9905;52.126;5.596;2023-02-28T03:31:59;4.90;;;4.70;;
19521;SDS011;9905;52.126;5.596;2023-02-28T03:34:31;5.63;;;4.65;;
19521;SDS011;9905;52.126;5.596;2023-02-28T03:37:06;4.97;;;4.78;;
19521;SDS011;9905;52.126;5.596;2023-02-28T03:39:38;4.95;;;4.65;;
19521;SDS011;9905;52.126;5.596;2023-02-28T03:42:09;5.20;;;4.93;;
19521;SDS011;9905;52.126;5.596;2023-02-28T03:44:39;4.95;;;4.75;;
19521;SDS011;9905;52.126;5.596;2023-02-28T03:47:10;5.65;;;5.25;;
19521;SDS011;9905;52.126;5.596;2023-02-28T03:49:40;5.32;;;5.03;;
19521;SDS011;9905;52.126;5.596;2023-02-28T03:52:14;5.03;;;4.65;;
19521;SDS011;9905;52.126;5.596;2023-02-28T03:54:41;5.10;;;4.90;;
19521;SDS011;9905;52.126;5.596;2023-02-28T03:57:12;4.95;;;4.75;;
19521;SDS011;9905;52.126;5.596;2023-02-28T03:59:44;5.07;;;4.75;;
19521;SDS011;9905;52.126;5.596;2023-02-28T04:02:14;5.75;;;5.25;;
19521;SDS011;9905;52.126;5.596;2023-02-28T04:04:41;5.43;;;5.03;;
19521;SDS011;9905;52.126;5.596;2023-02-28T04:07:14;5.95;;;5.55;;
19521;SDS011;9905;52.126;5.596;2023-02-28T04:09:42;5.18;;;4.97;;
19521;SDS011;9905;52.126;5.596;2023-02-28T04:12:08;5.25;;;4.85;;
19521;SDS011;9905;52.126;5.596;2023-02-28T04:14:35;5.28;;;4.97;;
19521;SDS011;9905;52.126;5.596;2023-02-28T04:17:02;5.00;;;4.78;;
19521;SDS011;9905;52.126;5.596;2023-02-28T04:19:29;4.85;;;4.55;;
19521;SDS011;9905;52.126;5.596;2023-02-28T04:21:56;5.60;;;4.82;;
19521;SDS011;9905;52.126;5.596;2023-02-28T04:24:24;4.90;;;4.57;;
19521;SDS011;9905;52.126;5.596;2023-02-28T04:26:53;4.43;;;4.22;;
19521;SDS011;9905;52.126;5.596;2023-02-28T04:29:21;4.60;;;4.40;;
19521;SDS011;9905;52.126;5.596;2023-02-28T04:31:49;4.95;;;4.68;;
19521;SDS011;9905;52.126;5.596;2023-02-28T04:34:18;4.65;;;4.40;;
19521;SDS011;9905;52.126;5.596;2023-02-28T04:36:46;5.05;;;4.80;;
19521;SDS011;9905;52.126;5.596;2023-02-28T04:39:14;5.20;;;4.35;;
19521;SDS011;9905;52.126;5.596;2023-02-28T04:41:43;5.15;;;4.75;;
19521;SDS011;9905;52.126;5.596;2023-02-28T04:44:10;5.03;;;4.82;;
19521;SDS011;9905;52.126;5.596;2023-02-28T04:46:37;4.28;;;4.07;;
19521;SDS011;9905;52.126;5.596;2023-02-28T04:49:03;4.53;;;4.30;;
19521;SDS011;9905;52.126;5.596;2023-02-28T04:51:30;4.50;;;4.30;;
19521;SDS011;9905;52.126;5.596;2023-02-28T04:53:57;4.80;;;4.60;;
19521;SDS011;9905;52.126;5.596;2023-02-28T04:56:24;4.97;;;4.70;;
19521;SDS011;9905;52.126;5.596;2023-02-28T04:58:52;5.07;;;4.70;;
19521;SDS011;9905;52.126;5.596;2023-02-28T05:01:21;4.80;;;4.60;;
19521;SDS011;9905;52.126;5.596;2023-02-28T05:03:49;4.80;;;4.60;;
19521;SDS011;9905;52.126;5.596;2023-02-28T05:06:16;4.70;;;4.50;;
19521;SDS011;9905;52.126;5.596;2023-02-28T05:08:43;4.82;;;4.63;;
19521;SDS011;9905;52.126;5.596;2023-02-28T05:11:13;4.20;;;4.00;;
19521;SDS011;9905;52.126;5.596;2023-02-28T05:13:42;5.13;;;4.70;;
19521;SDS011;9905;52.126;5.596;2023-02-28T05:16:10;4.45;;;4.35;;
19521;SDS011;9905;52.126;5.596;2023-02-28T05:18:37;4.50;;;4.30;;
19521;SDS011;9905;52.126;5.596;2023-02-28T05:21:04;4.65;;;4.45;;
19521;SDS011;9905;52.126;5.596;2023-02-28T05:23:32;4.82;;;4.60;;
19521;SDS011;9905;52.126;5.596;2023-02-28T05:25:59;4.97;;;4.78;;
19521;SDS011;9905;52.126;5.596;2023-02-28T05:28:25;4.63;;;4.32;;
19521;SDS011;9905;52.126;5.596;2023-02-28T05:30:52;4.97;;;4.77;;
19521;SDS011;9905;52.126;5.596;2023-02-28T05:33:20;4.95;;;4.65;;
19521;SDS011;9905;52.126;5.596;2023-02-28T05:35:47;5.40;;;5.10;;
19521;SDS011;9905;52.126;5.596;2023-02-28T05:38:13;5.15;;;4.85;;
19521;SDS011;9905;52.126;5.596;2023-02-28T05:40:40;5.80;;;5.30;;
19521;SDS011;9905;52.126;5.596;2023-02-28T05:43:09;5.82;;;5.43;;
19521;SDS011;9905;52.126;5.596;2023-02-28T05:45:38;5.40;;;5.00;;
19521;SDS011;9905;52.126;5.596;2023-02-28T05:48:05;4.90;;;4.57;;
19521;SDS011;9905;52.126;5.596;2023-02-28T05:50:33;4.90;;;4.70;;
19521;SDS011;9905;52.126;5.596;2023-02-28T05:53:00;4.95;;;4.75;;
19521;SDS011;9905;52.126;5.596;2023-02-28T05:55:27;7.00;;;4.78;;
19521;SDS011;9905;52.126;5.596;2023-02-28T05:57:54;4.93;;;4.55;;
19521;SDS011;9905;52.126;5.596;2023-02-28T06:00:22;4.90;;;4.60;;
19521;SDS011;9905;52.126;5.596;2023-02-28T06:02:49;4.77;;;4.37;;
19521;SDS011;9905;52.126;5.596;2023-02-28T06:05:17;5.30;;;4.90;;
19521;SDS011;9905;52.126;5.596;2023-02-28T06:07:45;5.18;;;4.95;;
19521;SDS011;9905;52.126;5.596;2023-02-28T06:10:12;5.30;;;5.10;;
19521;SDS011;9905;52.126;5.596;2023-02-28T06:12:39;5.00;;;4.80;;
19521;SDS011;9905;52.126;5.596;2023-02-28T06:15:07;5.15;;;4.75;;
19521;SDS011;9905;52.126;5.596;2023-02-28T06:17:39;5.00;;;4.80;;
19521;SDS011;9905;52.126;5.596;2023-02-28T06:20:07;4.85;;;4.60;;
19521;SDS011;9905;52.126;5.596;2023-02-28T06:22:34;4.87;;;4.67;;
19521;SDS011;9905;52.126;5.596;2023-02-28T06:25:03;4.60;;;4.40;;
19521;SDS011;9905;52.126;5.596;2023-02-28T06:27:32;5.15;;;4.85;;
19521;SDS011;9905;52.126;5.596;2023-02-28T06:29:59;5.82;;;5.25;;
19521;SDS011;9905;52.126;5.596;2023-02-28T06:32:26;5.22;;;4.93;;
19521;SDS011;9905;52.126;5.596;2023-02-28T06:34:53;7.15;;;5.00;;
19521;SDS011;9905;52.126;5.596;2023-02-28T06:37:19;5.35;;;4.95;;
19521;SDS011;9905;52.126;5.596;2023-02-28T06:39:46;4.95;;;4.70;;
19521;SDS011;9905;52.126;5.596;2023-02-28T06:42:14;4.90;;;4.53;;
19521;SDS011;9905;52.126;5.596;2023-02-28T06:44:41;5.07;;;4.70;;
19521;SDS011;9905;52.126;5.596;2023-02-28T06:47:08;5.20;;;4.90;;
19521;SDS011;9905;52.126;5.596;2023-02-28T06:49:35;4.90;;;4.70;;
19521;SDS011;9905;52.126;5.596;2023-02-28T06:52:04;4.53;;;4.32;;
19521;SDS011;9905;52.126;5.596;2023-02-28T06:54:30;4.97;;;4.78;;
19521;SDS011;9905;52.126;5.596;2023-02-28T06:56:57;4.57;;;4.35;;
19521;SDS011;9905;52.126;5.596;2023-02-28T06:59:25;5.07;;;4.68;;
19521;SDS011;9905;52.126;5.596;2023-02-28T07:01:52;4.53;;;4.40;;
19521;SDS011;9905;52.126;5.596;2023-02-28T07:04:20;5.70;;;4.93;;
19521;SDS011;9905;52.126;5.596;2023-02-28T07:06:46;5.20;;;4.82;;
19521;SDS011;9905;52.126;5.596;2023-02-28T07:09:13;4.85;;;4.65;;
19521;SDS011;9905;52.126;5.596;2023-02-28T07:11:40;4.90;;;4.47;;
19521;SDS011;9905;52.126;5.596;2023-02-28T07:14:08;5.30;;;4.90;;
19521;SDS011;9905;52.126;5.596;2023-02-28T07:16:36;4.88;;;4.68;;
19521;SDS011;9905;52.126;5.596;2023-02-28T07:19:02;4.63;;;4.32;;
19521;SDS011;9905;52.126;5.596;2023-02-28T07:21:29;4.82;;;4.55;;
19521;SDS011;9905;52.126;5.596;2023-02-28T07:23:56;5.07;;;4.78;;
19521;SDS011;9905;52.126;5.596;2023-02-28T07:26:23;4.80;;;4.60;;
19521;SDS011;9905;52.126;5.596;2023-02-28T07:28:50;5.32;;;5.03;;
19521;SDS011;9905;52.126;5.596;2023-02-28T07:31:17;5.00;;;4.80;;
19521;SDS011;9905;52.126;5.596;2023-02-28T07:33:45;4.80;;;4.60;;
19521;SDS011;9905;52.126;5.596;2023-02-28T07:36:13;5.07;;;4.88;;
19521;SDS011;9905;52.126;5.596;2023-02-28T07:38:43;6.20;;;5.80;;
19521;SDS011;9905;52.126;5.596;2023-02-28T07:41:11;5.88;;;5.40;;
19521;SDS011;9905;52.126;5.596;2023-02-28T07:43:38;5.80;;;5.50;;
19521;SDS011;9905;52.126;5.596;2023-02-28T07:46:06;4.95;;;4.70;;
19521;SDS011;9905;52.126;5.596;2023-02-28T07:48:34;5.65;;;5.22;;
19521;SDS011;9905;52.126;5.596;2023-02-28T07:51:03;5.22;;;4.93;;
19521;SDS011;9905;52.126;5.596;2023-02-28T07:53:30;5.65;;;5.20;;
19521;SDS011;9905;52.126;5.596;2023-02-28T07:55:58;5.43;;;5.18;;
19521;SDS011;9905;52.126;5.596;2023-02-28T07:58:26;5.50;;;5.30;;
19521;SDS011;9905;52.126;5.596;2023-02-28T08:00:53;5.22;;;4.90;;
19521;SDS011;9905;52.126;5.596;2023-02-28T08:03:21;6.40;;;4.88;;
19521;SDS011;9905;52.126;5.596;2023-02-28T08:05:48;5.18;;;4.97;;
19521;SDS011;9905;52.126;5.596;2023-02-28T08:08:18;5.75;;;5.30;;
19521;SDS011;9905;52.126;5.596;2023-02-28T08:10:45;5.35;;;4.97;;
19521;SDS011;9905;52.126;5.596;2023-02-28T08:13:12;5.20;;;4.70;;
19521;SDS011;9905;52.126;5.596;2023-02-28T08:15:40;5.20;;;4.70;;
19521;SDS011;9905;52.126;5.596;2023-02-28T08:18:07;4.47;;;4.28;;
19521;SDS011;9905;52.126;5.596;2023-02-28T08:20:33;4.57;;;4.38;;
19521;SDS011;9905;52.126;5.596;2023-02-28T08:23:00;4.72;;;4.32;;
19521;SDS011;9905;52.126;5.596;2023-02-28T08:25:28;4.50;;;4.20;;
19521;SDS011;9905;52.126;5.596;2023-02-28T08:27:55;7.55;;;4.60;;
19521;SDS011;9905;52.126;5.596;2023-02-28T08:30:22;4.78;;;4.25;;
19521;SDS011;9905;52.126;5.596;2023-02-28T08:32:48;4.38;;;4.18;;
19521;SDS011;9905;52.126;5.596;2023-02-28T08:35:15;4.85;;;4.55;;
19521;SDS011;9905;52.126;5.596;2023-02-28T08:37:42;3.85;;;3.60;;
19521;SDS011;9905;52.126;5.596;2023-02-28T08:40:10;4.00;;;3.80;;
19521;SDS011;9905;52.126;5.596;2023-02-28T08:42:44;3.72;;;3.58;;
19521;SDS011;9905;52.126;5.596;2023-02-28T08:45:11;3.60;;;3.50;;
19521;SDS011;9905;52.126;5.596;2023-02-28T08:47:37;3.60;;;3.40;;
19521;SDS011;9905;52.126;5.596;2023-02-28T08:50:05;5.95;;;3.38;;
19521;SDS011;9905;52.126;5.596;2023-02-28T08:52:32;3.50;;;3.40;;
19521;SDS011;9905;52.126;5.596;2023-02-28T08:54:59;3.20;;;3.10;;
19521;SDS011;9905;52.126;5.596;2023-02-28T08:57:26;3.20;;;3.10;;
19521;SDS011;9905;52.126;5.596;2023-02-28T08:59:54;3.25;;;3.15;;
19521;SDS011;9905;52.126;5.596;2023-02-28T09:02:20;2.92;;;2.75;;
19521;SDS011;9905;52.126;5.596;2023-02-28T09:04:47;2.63;;;2.53;;
19521;SDS011;9905;52.126;5.596;2023-02-28T09:07:14;3.63;;;2.70;;
19521;SDS011;9905;52.126;5.596;2023-02-28T09:09:41;2.67;;;2.50;;
19521;SDS011;9905;52.126;5.596;2023-02-28T09:12:18;2.80;;;2.60;;
19521;SDS011;9905;52.126;5.596;2023-02-28T09:14:45;2.60;;;2.50;;
19521;SDS011;9905;52.126;5.596;2023-02-28T09:17:13;2.95;;;2.70;;
19521;SDS011;9905;52.126;5.596;2023-02-28T09:19:40;2.60;;;2.50;;
19521;SDS011;9905;52.126;5.596;2023-02-28T09:22:07;2.28;;;2.28;;
19521;SDS011;9905;52.126;5.596;2023-02-28T09:24:35;2.33;;;2.30;;
19521;SDS011;9905;52.126;5.596;2023-02-28T09:27:02;2.80;;;2.70;;
19521;SDS011;9905;52.126;5.596;2023-02-28T09:29:29;2.50;;;2.40;;
19521;SDS011;9905;52.126;5.596;2023-02-28T09:31:55;2.50;;;2.40;;
19521;SDS011;9905;52.126;5.596;2023-02-28T09:34:24;3.22;;;2.95;;
19521;SDS011;9905;52.126;5.596;2023-02-28T09:36:51;2.78;;;2.67;;
19521;SDS011;9905;52.126;5.596;2023-02-28T09:39:19;2.70;;;2.60;;
19521;SDS011;9905;52.126;5.596;2023-02-28T09:41:47;2.70;;;2.60;;
19521;SDS011;9905;52.126;5.596;2023-02-28T09:44:18;2.60;;;2.60;;
19521;SDS011;9905;52.126;5.596;2023-02-28T09:46:49;2.63;;;2.53;;
19521;SDS011;9905;52.126;5.596;2023-02-28T09:49:22;2.45;;;2.45;;
19521;SDS011;9905;52.126;5.596;2023-02-28T09:51:55;2.65;;;2.55;;
19521;SDS011;9905;52.126;5.596;2023-02-28T09:54:27;2.95;;;2.80;;
19521;SDS011;9905;52.126;5.596;2023-02-28T09:56:56;2.45;;;2.38;;
19521;SDS011;9905;52.126;5.596;2023-02-28T09:59:32;2.83;;;2.72;;
19521;SDS011;9905;52.126;5.596;2023-02-28T10:02:10;2.60;;;2.40;;
19521;SDS011;9905;52.126;5.596;2023-02-28T10:04:52;2.47;;;2.38;;
19521;SDS011;9905;52.126;5.596;2023-02-28T10:07:27;2.60;;;2.50;;
19521;SDS011;9905;52.126;5.596;2023-02-28T10:10:04;2.40;;;2.35;;
19521;SDS011;9905;52.126;5.596;2023-02-28T10:12:41;3.03;;;2.30;;
19521;SDS011;9905;52.126;5.596;2023-02-28T10:15:13;2.45;;;2.35;;
19521;SDS011;9905;52.126;5.596;2023-02-28T10:17:41;2.10;;;2.10;;
19521;SDS011;9905;52.126;5.596;2023-02-28T10:20:13;2.60;;;2.50;;
19521;SDS011;9905;52.126;5.596;2023-02-28T10:22:49;3.83;;;2.30;;
19521;SDS011;9905;52.126;5.596;2023-02-28T10:25:20;2.50;;;2.40;;
19521;SDS011;9905;52.126;5.596;2023-02-28T10:27:49;2.60;;;2.50;;
19521;SDS011;9905;52.126;5.596;2023-02-28T10:30:19;2.17;;;2.17;;
19521;SDS011;9905;52.126;5.596;2023-02-28T10:32:47;2.40;;;2.35;;
19521;SDS011;9905;52.126;5.596;2023-02-28T10:35:20;2.53;;;2.42;;
19521;SDS011;9905;52.126;5.596;2023-02-28T10:37:49;2.60;;;2.50;;
19521;SDS011;9905;52.126;5.596;2023-02-28T10:40:26;2.67;;;2.25;;
19521;SDS011;9905;52.126;5.596;2023-02-28T10:42:56;2.25;;;2.25;;
19521;SDS011;9905;52.126;5.596;2023-02-28T10:45:24;2.58;;;2.47;;
19521;SDS011;9905;52.126;5.596;2023-02-28T10:47:53;2.80;;;2.50;;
19521;SDS011;9905;52.126;5.596;2023-02-28T10:50:30;2.42;;;2.33;;
19521;SDS011;9905;52.126;5.596;2023-02-28T10:53:13;2.35;;;2.35;;
19521;SDS011;9905;52.126;5.596;2023-02-28T10:55:59;2.20;;;2.20;;
19521;SDS011;9905;52.126;5.596;2023-02-28T10:58:29;2.58;;;2.47;;
19521;SDS011;9905;52.126;5.596;2023-02-28T11:00:57;2.50;;;2.40;;
19521;SDS011;9905;52.126;5.596;2023-02-28T11:03:29;2.85;;;2.65;;
19521;SDS011;9905;52.126;5.596;2023-02-28T11:06:04;2.10;;;2.10;;
19521;SDS011;9905;52.126;5.596;2023-02-28T11:08:33;2.15;;;2.15;;
19521;SDS011;9905;52.126;5.596;2023-02-28T11:11:00;2.10;;;2.10;;
19521;SDS011;9905;52.126;5.596;2023-02-28T11:13:32;2.28;;;2.22;;
19521;SDS011;9905;52.126;5.596;2023-02-28T11:16:02;2.13;;;2.13;;
19521;SDS011;9905;52.126;5.596;2023-02-28T11:18:33;2.15;;;2.15;;
19521;SDS011;9905;52.126;5.596;2023-02-28T11:21:07;2.40;;;2.40;;
19521;SDS011;9905;52.126;5.596;2023-02-28T11:23:39;2.50;;;2.40;;
19521;SDS011;9905;52.126;5.596;2023-02-28T11:26:07;2.55;;;2.30;;
19521;SDS011;9905;52.126;5.596;2023-02-28T11:28:36;2.40;;;2.30;;
19521;SDS011;9905;52.126;5.596;2023-02-28T11:33:48;3.10;;;2.80;;
19521;SDS011;9905;52.126;5.596;2023-02-28T11:36:18;2.72;;;2.63;;
19521;SDS011;9905;52.126;5.596;2023-02-28T11:38:49;2.25;;;2.10;;
19521;SDS011;9905;52.126;5.596;2023-02-28T11:41:39;3.45;;;2.45;;
19521;SDS011;9905;52.126;5.596;2023-02-28T11:44:21;2.50;;;2.40;;
19521;SDS011;9905;52.126;5.596;2023-02-28T11:46:56;2.60;;;2.50;;
19521;SDS011;9905;52.126;5.596;2023-02-28T11:49:35;2.53;;;2.42;;
19521;SDS011;9905;52.126;5.596;2023-02-28T11:52:14;2.63;;;2.53;;
19521;SDS011;9905;52.126;5.596;2023-02-28T11:54:59;2.50;;;2.40;;
19521;SDS011;9905;52.126;5.596;2023-02-28T11:57:52;2.60;;;2.50;;
19521;SDS011;9905;52.126;5.596;2023-02-28T12:00:42;2.70;;;2.60;;
19521;SDS011;9905;52.126;5.596;2023-02-28T12:03:24;2.47;;;2.38;;
19521;SDS011;9905;52.126;5.596;2023-02-28T12:05:57;2.30;;;2.20;;
19521;SDS011;9905;52.126;5.596;2023-02-28T12:08:41;2.53;;;2.42;;
19521;SDS011;9905;52.126;5.596;2023-02-28T12:11:18;2.60;;;2.50;;
19521;SDS011;9905;52.126;5.596;2023-02-28T12:13:57;2.30;;;2.30;;
19521;SDS011;9905;52.126;5.596;2023-02-28T12:16:44;2.58;;;2.47;;
19521;SDS011;9905;52.126;5.596;2023-02-28T12:19:21;2.30;;;2.17;;
19521;SDS011;9905;52.126;5.596;2023-02-28T12:24:52;2.20;;;2.10;;
19521;SDS011;9905;52.126;5.596;2023-02-28T12:27:29;2.45;;;2.25;;
19521;SDS011;9905;52.126;5.596;2023-02-28T12:30:00;2.22;;;2.15;;
19521;SDS011;9905;52.126;5.596;2023-02-28T12:32:32;2.35;;;2.25;;
19521;SDS011;9905;52.126;5.596;2023-02-28T12:35:03;2.88;;;2.70;;
19521;SDS011;9905;52.126;5.596;2023-02-28T12:37:39;2.83;;;2.63;;
19521;SDS011;9905;52.126;5.596;2023-02-28T12:40:12;2.40;;;2.30;;
19521;SDS011;9905;52.126;5.596;2023-02-28T12:42:42;2.60;;;2.50;;
19521;SDS011;9905;52.126;5.596;2023-02-28T12:45:12;2.85;;;2.65;;
19521;SDS011;9905;52.126;5.596;2023-02-28T12:47:44;2.10;;;2.10;;
19521;SDS011;9905;52.126;5.596;2023-02-28T12:50:16;2.38;;;2.28;;
19521;SDS011;9905;52.126;5.596;2023-02-28T12:52:47;2.30;;;2.20;;
19521;SDS011;9905;52.126;5.596;2023-02-28T12:55:21;2.50;;;2.40;;
19521;SDS011;9905;52.126;5.596;2023-02-28T12:57:56;2.70;;;2.60;;
19521;SDS011;9905;52.126;5.596;2023-02-28T13:00:32;2.60;;;2.50;;
19521;SDS011;9905;52.126;5.596;2023-02-28T13:03:13;2.20;;;2.20;;
19521;SDS011;9905;52.126;5.596;2023-02-28T13:05:56;2.75;;;2.65;;
19521;SDS011;9905;52.126;5.596;2023-02-28T13:08:50;2.25;;;2.25;;
19521;SDS011;9905;52.126;5.596;2023-02-28T13:11:30;2.40;;;2.30;;
19521;SDS011;9905;52.126;5.596;2023-02-28T13:13:58;2.33;;;2.22;;
19521;SDS011;9905;52.126;5.596;2023-02-28T13:16:27;2.30;;;2.20;;
19521;SDS011;9905;52.126;5.596;2023-02-28T13:19:07;2.63;;;2.50;;
19521;SDS011;9905;52.126;5.596;2023-02-28T13:21:41;2.55;;;2.35;;
19521;SDS011;9905;52.126;5.596;2023-02-28T13:24:10;2.28;;;2.25;;
19521;SDS011;9905;52.126;5.596;2023-02-28T13:33:22;2.63;;;2.53;;
19521;SDS011;9905;52.126;5.596;2023-02-28T13:36:01;2.60;;;2.50;;
19521;SDS011;9905;52.126;5.596;2023-02-28T13:38:36;3.47;;;2.50;;
19521;SDS011;9905;52.126;5.596;2023-02-28T13:44:09;2.40;;;2.30;;
19521;SDS011;9905;52.126;5.596;2023-02-28T13:50:15;2.60;;;2.50;;
19521;SDS011;9905;52.126;5.596;2023-02-28T13:53:00;2.72;;;2.63;;
19521;SDS011;9905;52.126;5.596;2023-02-28T13:55:51;2.60;;;2.50;;
19521;SDS011;9905;52.126;5.596;2023-02-28T13:58:31;2.70;;;2.60;;
19521;SDS011;9905;52.126;5.596;2023-02-28T14:04:08;2.70;;;2.60;;
19521;SDS011;9905;52.126;5.596;2023-02-28T14:07:04;2.60;;;2.50;;
19521;SDS011;9905;52.126;5.596;2023-02-28T14:09:32;2.83;;;2.63;;
19521;SDS011;9905;52.126;5.596;2023-02-28T14:15:01;2.85;;;2.75;;
19521;SDS011;9905;52.126;5.596;2023-02-28T14:17:30;3.00;;;2.80;;
19521;SDS011;9905;52.126;5.596;2023-02-28T14:19:57;2.78;;;2.67;;
19521;SDS011;9905;52.126;5.596;2023-02-28T14:25:16;2.45;;;2.35;;
19521;SDS011;9905;52.126;5.596;2023-02-28T14:27:50;2.53;;;2.42;;
19521;SDS011;9905;52.126;5.596;2023-02-28T14:30:40;2.35;;;2.17;;
19521;SDS011;9905;52.126;5.596;2023-02-28T14:33:22;2.30;;;2.20;;
19521;SDS011;9905;52.126;5.596;2023-02-28T14:36:03;2.40;;;2.30;;
19521;SDS011;9905;52.126;5.596;2023-02-28T14:38:35;2.30;;;2.13;;
19521;SDS011;9905;52.126;5.596;2023-02-28T14:41:13;2.30;;;2.20;;
19521;SDS011;9905;52.126;5.596;2023-02-28T14:43:48;2.40;;;2.30;;
19521;SDS011;9905;52.126;5.596;2023-02-28T14:46:17;2.92;;;2.70;;
19521;SDS011;9905;52.126;5.596;2023-02-28T14:48:46;2.90;;;2.80;;
19521;SDS011;9905;52.126;5.596;2023-02-28T14:51:17;2.88;;;2.78;;
19521;SDS011;9905;52.126;5.596;2023-02-28T14:53:48;2.70;;;2.60;;
19521;SDS011;9905;52.126;5.596;2023-02-28T14:56:24;2.60;;;2.42;;
19521;SDS011;9905;52.126;5.596;2023-02-28T14:58:55;2.60;;;2.50;;
19521;SDS011;9905;52.126;5.596;2023-02-28T15:01:23;2.30;;;2.20;;
19521;SDS011;9905;52.126;5.596;2023-02-28T15:03:59;3.05;;;2.50;;
19521;SDS011;9905;52.126;5.596;2023-02-28T15:06:27;3.20;;;2.30;;
19521;SDS011;9905;52.126;5.596;2023-02-28T15:09:06;2.35;;;2.25;;
19521;SDS011;9905;52.126;5.596;2023-02-28T15:11:34;2.25;;;2.15;;
19521;SDS011;9905;52.126;5.596;2023-02-28T15:14:02;2.38;;;2.28;;
19521;SDS011;9905;52.126;5.596;2023-02-28T15:16:30;2.72;;;2.63;;
19521;SDS011;9905;52.126;5.596;2023-02-28T15:19:03;2.50;;;2.40;;
19521;SDS011;9905;52.126;5.596;2023-02-28T15:21:33;2.30;;;2.13;;
19521;SDS011;9905;52.126;5.596;2023-02-28T15:24:02;2.30;;;2.20;;
19521;SDS011;9905;52.126;5.596;2023-02-28T15:26:32;2.47;;;2.38;;
19521;SDS011;9905;52.126;5.596;2023-02-28T15:29:04;2.63;;;2.42;;
19521;SDS011;9905;52.126;5.596;2023-02-28T15:31:35;2.20;;;2.20;;
19521;SDS011;9905;52.126;5.596;2023-02-28T15:34:15;2.85;;;2.45;;
19521;SDS011;9905;52.126;5.596;2023-02-28T15:36:46;2.88;;;2.70;;
19521;SDS011;9905;52.126;5.596;2023-02-28T15:39:18;2.72;;;2.35;;
19521;SDS011;9905;52.126;5.596;2023-02-28T15:41:46;2.50;;;2.40;;
19521;SDS011;9905;52.126;5.596;2023-02-28T15:44:14;2.28;;;2.17;;
19521;SDS011;9905;52.126;5.596;2023-02-28T15:46:55;2.20;;;2.20;;
19521;SDS011;9905;52.126;5.596;2023-02-28T15:49:26;2.20;;;2.10;;
19521;SDS011;9905;52.126;5.596;2023-02-28T15:51:54;2.50;;;2.40;;
19521;SDS011;9905;52.126;5.596;2023-02-28T15:54:28;2.30;;;2.20;;
19521;SDS011;9905;52.126;5.596;2023-02-28T15:56:57;2.22;;;2.13;;
19521;SDS011;9905;52.126;5.596;2023-02-28T15:59:27;2.10;;;2.00;;